Time;durP1;ratioP1;P1;durP2;ratioP2;P2;SDS_P1;SDS_P2;PMS_P1;PMS_P2;Temp;Humidity;BMP_temperature;BMP_pressure;BME280_temperature;BME280_humidity;BME280_pressure;Samples;Min_cycle;Max_cycle;Signal;HPM_P1;HPM_P2
2022/10/14 00:01:35;;;;;;;1.97;1.87;;;;;;;13.45;100.00;95635.41;4303463;33;20197;-59
2022/10/14 00:04:01;;;;;;;1.40;1.30;;;;;;;13.48;100.00;95645.47;4298655;33;20270;-59
2022/10/14 00:06:34;;;;;;;4.67;1.70;;;;;;;13.43;100.00;95646.38;4244967;33;20190;-59
2022/10/14 00:09:04;;;;;;;1.70;1.60;;;;;;;13.53;100.00;95647.97;4287658;33;20212;-59
2022/10/14 00:11:33;;;;;;;1.20;1.20;;;;;;;13.42;100.00;95644.78;4304877;33;20204;-60
2022/10/14 00:14:04;;;;;;;1.13;1.13;;;;;;;13.39;100.00;95658.72;4281989;33;20194;-59
2022/10/14 00:16:36;;;;;;;1.37;1.27;;;;;;;13.39;100.00;95654.16;4297772;33;20213;-60
2022/10/14 00:19:04;;;;;;;1.27;1.13;;;;;;;13.47;100.00;95642.00;4299194;33;20181;-59
2022/10/14 00:21:32;;;;;;;1.70;1.60;;;;;;;13.25;100.00;95650.78;4315732;33;20296;-59
2022/10/14 00:24:00;;;;;;;0.70;0.70;;;;;;;13.39;100.00;95640.84;4305948;33;20252;-59
2022/10/14 00:26:30;;;;;;;1.40;0.90;;;;;;;13.38;100.00;95647.25;4329101;32;20295;-59
2022/10/14 00:29:05;;;;;;;1.53;1.00;;;;;;;13.32;100.00;95639.69;4324763;32;20194;-59
2022/10/14 00:31:32;;;;;;;0.77;0.77;;;;;;;13.48;100.00;95648.91;4299945;33;20185;-60
2022/10/14 00:33:58;;;;;;;1.30;1.30;;;;;;;13.22;100.00;95655.91;4293954;33;20208;-60
2022/10/14 00:36:26;;;;;;;1.10;1.10;;;;;;;13.13;100.00;95655.00;4294905;33;20199;-59
2022/10/14 00:38:56;;;;;;;1.00;1.00;;;;;;;13.14;100.00;95646.72;4317501;32;20253;-59
2022/10/14 00:41:42;;;;;;;1.10;1.10;;;;;;;13.08;100.00;95654.06;4322745;32;20204;-59
2022/10/14 00:44:16;;;;;;;1.10;1.10;;;;;;;13.19;100.00;95643.19;4321909;32;20212;-59
2022/10/14 00:46:45;;;;;;;0.90;0.90;;;;;;;13.27;100.00;95642.50;4302315;33;20186;-60
2022/10/14 00:49:21;;;;;;;2.07;1.27;;;;;;;13.36;100.00;95646.78;4317717;32;20194;-59
2022/10/14 00:52:15;;;;;;;1.63;1.03;;;;;;;13.31;100.00;95643.44;4325553;33;20268;-59
2022/10/14 00:54:45;;;;;;;1.70;1.13;;;;;;;13.34;100.00;95640.16;4331858;32;20190;-59
2022/10/14 00:57:14;;;;;;;0.80;0.80;;;;;;;13.22;100.00;95646.06;4278821;32;20212;-59
2022/10/14 00:59:42;;;;;;;1.13;0.90;;;;;;;13.25;100.00;95642.00;4317845;32;20220;-59
2022/10/14 01:02:08;;;;;;;8.23;1.07;;;;;;;13.33;100.00;95643.94;4331993;32;20241;-59
2022/10/14 01:04:41;;;;;;;2.43;1.27;;;;;;;13.36;100.00;95643.31;4298365;33;20217;-60
2022/10/14 01:07:40;;;;;;;2.37;1.10;;;;;;;13.43;100.00;95643.69;4314294;33;20229;-60
2022/10/14 01:10:31;;;;;;;1.90;1.43;;;;;;;13.44;100.00;95650.59;4319783;32;20229;-66
2022/10/14 01:13:34;;;;;;;1.13;1.13;;;;;;;13.43;100.00;95646.38;4328577;32;20257;-59
2022/10/14 01:16:20;;;;;;;0.83;0.83;;;;;;;13.56;100.00;95642.06;4298787;33;20193;-60
2022/10/14 01:19:18;;;;;;;1.07;1.03;;;;;;;13.61;100.00;95640.06;4301153;33;20190;-59
2022/10/14 01:21:51;;;;;;;0.97;0.97;;;;;;;13.59;100.00;95642.22;4338629;32;20189;-60
2022/10/14 01:24:54;;;;;;;0.83;0.83;;;;;;;13.41;100.00;95646.66;4310743;32;20194;-57
2022/10/14 01:27:48;;;;;;;1.27;0.87;;;;;;;13.51;100.00;95639.53;4332452;32;20212;-59
2022/10/14 01:30:28;;;;;;;0.47;0.47;;;;;;;13.12;100.00;95640.13;4315006;32;20181;-59
2022/10/14 01:33:18;;;;;;;0.67;0.60;;;;;;;13.20;100.00;95642.09;4312996;32;20202;-59
2022/10/14 01:36:05;;;;;;;0.47;0.47;;;;;;;13.21;100.00;95641.81;4315562;32;20208;-59
2022/10/14 01:38:42;;;;;;;1.03;1.03;;;;;;;13.06;100.00;95634.94;4322474;33;20186;-59
2022/10/14 01:41:16;;;;;;;4.03;0.93;;;;;;;12.83;100.00;95630.66;4326072;32;20251;-59
2022/10/14 01:43:46;;;;;;;0.30;0.30;;;;;;;12.89;100.00;95634.75;4322944;32;20248;-59
2022/10/14 01:46:19;;;;;;;0.60;0.60;;;;;;;12.83;100.00;95630.66;4330389;32;20189;-59
2022/10/14 01:48:50;;;;;;;0.50;0.50;;;;;;;12.77;100.00;95637.16;4336241;32;20241;-59
2022/10/14 01:51:22;;;;;;;0.40;0.40;;;;;;;12.81;100.00;95632.03;4336432;32;20193;-58
2022/10/14 01:53:55;;;;;;;0.63;0.63;;;;;;;12.86;100.00;95632.72;4335059;32;20252;-59
2022/10/14 01:56:22;;;;;;;0.00;0.00;;;;;;;12.77;100.00;95631.84;4336665;32;20193;-60
2022/10/14 01:58:51;;;;;;;0.50;0.50;;;;;;;12.76;100.00;95627.59;4329190;32;20280;-59
2022/10/14 02:01:17;;;;;;;0.20;0.20;;;;;;;12.77;100.00;95631.84;4327582;32;20216;-60
2022/10/14 02:03:46;;;;;;;0.30;0.30;;;;;;;12.89;100.00;95628.63;4329022;32;20220;-60
2022/10/14 02:06:34;;;;;;;0.03;0.03;;;;;;;12.73;100.00;95633.50;4314284;33;20193;-59
2022/10/14 02:09:34;;;;;;;0.20;0.20;;;;;;;12.50;100.00;95626.53;4331237;32;20182;-59
2022/10/14 02:12:17;;;;;;;0.30;0.30;;;;;;;12.63;100.00;95631.09;4325380;32;20186;-59
2022/10/14 02:15:30;;;;;;;0.80;0.80;;;;;;;12.52;100.00;95624.38;4316631;32;20283;-59
2022/10/14 02:18:22;;;;;;;0.67;0.67;;;;;;;12.53;100.00;95620.63;4267014;33;20301;-59
2022/10/14 02:21:26;;;;;;;0.10;0.10;;;;;;;12.58;100.00;95626.66;4293372;33;20230;-59
2022/10/14 02:24:18;;;;;;;0.30;0.30;;;;;;;12.80;100.00;95631.25;4272214;33;20189;-59
2022/10/14 02:26:46;;;;;;;0.60;0.60;;;;;;;12.72;100.00;95634.59;4266889;33;20183;-59
2022/10/14 02:29:13;;;;;;;0.40;0.40;;;;;;;12.67;100.00;95637.41;4308065;33;20196;-59
2022/10/14 02:31:50;;;;;;;0.67;0.63;;;;;;;12.69;100.00;95637.84;4331798;32;20200;-59
2022/10/14 02:34:20;;;;;;;0.40;0.40;;;;;;;12.64;100.00;95640.66;4321095;32;20201;-59
2022/10/14 02:36:50;;;;;;;0.57;0.57;;;;;;;12.75;100.00;95644.66;4330821;32;20205;-59
2022/10/14 02:39:40;;;;;;;0.30;0.30;;;;;;;12.69;100.00;95640.50;4315534;32;20209;-54
2022/10/14 02:42:08;;;;;;;0.40;0.40;;;;;;;12.68;100.00;95638.94;4281876;33;20198;-60
2022/10/14 02:44:33;;;;;;;0.33;0.33;;;;;;;12.68;100.00;95639.72;4327961;32;20189;-59
2022/10/14 02:47:00;;;;;;;0.30;0.30;;;;;;;12.68;100.00;95644.25;4319261;33;20200;-59
2022/10/14 02:49:28;;;;;;;0.70;0.70;;;;;;;12.58;100.00;95650.59;4340814;32;20224;-59
2022/10/14 02:51:55;;;;;;;0.70;0.70;;;;;;;12.63;100.00;95649.72;4343486;32;20196;-59
2022/10/14 02:54:21;;;;;;;0.37;0.37;;;;;;;12.69;100.00;95640.50;4294314;32;20258;-60
2022/10/14 02:56:46;;;;;;;0.83;0.83;;;;;;;12.74;100.00;95643.06;4321756;32;20240;-59
2022/10/14 02:59:13;;;;;;;0.23;0.23;;;;;;;12.73;100.00;95644.94;4315410;32;20202;-60
2022/10/14 03:01:40;;;;;;;1.17;0.60;;;;;;;12.67;100.00;95642.72;4318065;32;20288;-60
2022/10/14 03:04:07;;;;;;;0.70;0.70;;;;;;;12.73;100.00;95646.81;4329128;32;20196;-59
2022/10/14 03:06:36;;;;;;;0.67;0.67;;;;;;;12.70;100.00;95645.53;4325476;32;20260;-59
2022/10/14 03:09:04;;;;;;;0.67;0.57;;;;;;;12.70;100.00;95639.44;4321339;32;20201;-58
2022/10/14 03:11:30;;;;;;;0.37;0.37;;;;;;;12.71;100.00;95641.78;4306960;33;20174;-59
2022/10/14 03:13:59;;;;;;;0.37;0.37;;;;;;;12.80;100.00;95644.56;4324966;32;20189;-58
2022/10/14 03:16:26;;;;;;;0.67;0.50;;;;;;;12.65;100.00;95639.56;4317532;32;20252;-58
2022/10/14 03:18:52;;;;;;;0.47;0.40;;;;;;;12.77;100.00;95649.69;4298615;33;20190;-59
2022/10/14 03:21:22;;;;;;;0.40;0.40;;;;;;;12.75;100.00;95642.00;4300384;33;20204;-59
2022/10/14 03:23:51;;;;;;;0.73;0.60;;;;;;;12.68;100.00;95639.72;4290813;33;20217;-59
2022/10/14 03:26:18;;;;;;;0.27;0.27;;;;;;;12.68;100.00;95638.94;4315873;32;20228;-59
2022/10/14 03:28:45;;;;;;;0.70;0.63;;;;;;;12.71;100.00;95638.34;4302910;32;20302;-59
2022/10/14 03:31:10;;;;;;;1.73;0.53;;;;;;;12.70;100.00;95642.09;4296386;33;20190;-59
2022/10/14 03:33:37;;;;;;;0.30;0.30;;;;;;;12.81;100.00;95643.47;4294709;33;20243;-60
2022/10/14 03:36:06;;;;;;;0.43;0.43;;;;;;;12.77;100.00;95636.38;4317782;32;20208;-59
2022/10/14 03:38:33;;;;;;;0.73;0.73;;;;;;;12.79;100.00;95635.00;4298084;33;20213;-59
2022/10/14 03:40:59;;;;;;;0.43;0.43;;;;;;;12.81;100.00;95642.69;4323557;33;20194;-59
2022/10/14 03:43:27;;;;;;;0.50;0.50;;;;;;;12.85;100.00;95638.34;4311364;33;20186;-59
2022/10/14 03:45:56;;;;;;;0.97;0.97;;;;;;;12.77;100.00;95636.38;4284213;33;20246;-59
2022/10/14 03:48:23;;;;;;;0.50;0.50;;;;;;;12.85;100.00;95639.13;4319245;33;20190;-59
2022/10/14 03:50:48;;;;;;;1.90;0.60;;;;;;;12.80;100.00;95644.56;4308077;33;20193;-58
2022/10/14 03:53:15;;;;;;;0.57;0.57;;;;;;;12.82;100.00;95638.94;4311646;33;20193;-59
2022/10/14 03:55:43;;;;;;;1.13;1.13;;;;;;;12.90;100.00;95644.31;4288428;33;20228;-59
2022/10/14 03:58:10;;;;;;;0.70;0.70;;;;;;;12.96;100.00;95635.16;4312370;33;20236;-59
2022/10/14 04:00:38;;;;;;;3.13;0.90;;;;;;;12.94;100.00;95637.31;4315571;32;20189;-59
2022/10/14 04:03:06;;;;;;;0.50;0.50;;;;;;;13.06;100.00;95637.59;4331254;32;20254;-58
2022/10/14 04:05:33;;;;;;;0.90;0.90;;;;;;;13.06;100.00;95629.59;4301975;32;20208;-57
2022/10/14 04:08:00;;;;;;;0.57;0.57;;;;;;;13.02;100.00;95623.28;4311148;33;20186;-59
2022/10/14 04:10:27;;;;;;;0.60;0.60;;;;;;;13.18;100.00;95620.31;4295299;33;20214;-59
2022/10/14 04:12:53;;;;;;;0.60;0.60;;;;;;;13.12;100.00;95627.59;4299010;32;20292;-59
2022/10/14 04:15:21;;;;;;;0.67;0.67;;;;;;;13.12;100.00;95624.13;4296267;33;20217;-59
2022/10/14 04:17:51;;;;;;;0.40;0.40;;;;;;;13.20;100.00;95620.78;4341790;32;20232;-59
2022/10/14 04:20:18;;;;;;;1.77;1.67;;;;;;;13.25;100.00;95620.69;4298763;32;20197;-59
2022/10/14 04:22:44;;;;;;;0.40;0.40;;;;;;;13.19;100.00;95616.56;4329415;32;20193;-60
2022/10/14 04:25:11;;;;;;;0.60;0.60;;;;;;;13.24;100.00;95613.78;4330032;32;20312;-59
2022/10/14 04:27:37;;;;;;;0.63;0.63;;;;;;;13.29;100.00;95608.34;4340530;32;20197;-60
2022/10/14 04:30:06;;;;;;;0.53;0.53;;;;;;;13.20;100.00;95610.13;4337805;32;20253;-59
2022/10/14 04:32:37;;;;;;;1.03;1.03;;;;;;;13.27;100.00;95608.63;4332573;32;20222;-59
2022/10/14 04:35:06;;;;;;;0.83;0.80;;;;;;;13.26;100.00;95614.28;4330982;32;20189;-66
2022/10/14 04:37:34;;;;;;;0.70;0.70;;;;;;;13.26;100.00;95603.59;4306841;33;20186;-59
2022/10/14 04:40:01;;;;;;;0.73;0.73;;;;;;;13.22;100.00;95606.09;4320703;32;20190;-58
2022/10/14 04:42:26;;;;;;;1.10;0.90;;;;;;;13.04;100.00;95607.81;4325361;32;20247;-59
2022/10/14 04:44:52;;;;;;;0.57;0.57;;;;;;;12.99;100.00;95597.25;4317109;32;20224;-59
2022/10/14 04:47:20;;;;;;;1.53;0.87;;;;;;;13.20;100.00;95604.81;4338513;32;20227;-59
2022/10/14 04:49:46;;;;;;;0.73;0.73;;;;;;;13.12;100.00;95600.94;4318780;32;20201;-59
2022/10/14 04:52:12;;;;;;;0.33;0.33;;;;;;;13.18;100.00;95601.66;4319032;33;20220;-60
2022/10/14 04:54:38;;;;;;;0.50;0.50;;;;;;;13.17;100.00;95587.56;4324030;32;20224;-59
2022/10/14 04:57:08;;;;;;;0.97;0.90;;;;;;;13.16;100.00;95591.31;4328971;32;20212;-59
2022/10/14 04:59:35;;;;;;;0.20;0.20;;;;;;;13.27;100.00;95586.53;4327736;33;20216;-58
2022/10/14 05:02:01;;;;;;;0.93;0.93;;;;;;;13.19;100.00;95579.25;4296858;32;20236;-59
2022/10/14 05:04:29;;;;;;;0.53;0.53;;;;;;;13.27;100.00;95587.31;4313190;32;20198;-59
2022/10/14 05:06:58;;;;;;;1.67;0.83;;;;;;;13.25;100.00;95589.50;4336167;32;20276;-59
2022/10/14 05:09:23;;;;;;;1.07;0.53;;;;;;;13.32;100.00;95581.84;4317722;32;20273;-59
2022/10/14 05:11:50;;;;;;;3.90;0.90;;;;;;;13.37;100.00;95573.75;4289581;32;20275;-60
2022/10/14 05:14:16;;;;;;;0.93;0.67;;;;;;;13.32;100.00;95581.06;4333069;32;20190;-59
2022/10/14 05:16:43;;;;;;;0.60;0.60;;;;;;;13.32;100.00;95567.75;4308167;33;20182;-59
2022/10/14 05:19:09;;;;;;;0.63;0.63;;;;;;;13.36;100.00;95569.50;4322944;33;20213;-60
2022/10/14 05:21:35;;;;;;;0.90;0.90;;;;;;;13.28;100.00;95569.47;4302914;33;20248;-59
2022/10/14 05:24:03;;;;;;;0.40;0.40;;;;;;;13.43;100.00;95574.41;4314486;33;20190;-59
2022/10/14 05:26:30;;;;;;;0.60;0.60;;;;;;;13.44;100.00;95572.53;4313641;33;20186;-59
2022/10/14 05:28:58;;;;;;;8.47;1.73;;;;;;;13.35;100.00;95572.47;4321352;32;20282;-59
2022/10/14 05:31:26;;;;;;;0.53;0.53;;;;;;;13.33;100.00;95570.09;4330301;32;20286;-59
2022/10/14 05:33:53;;;;;;;0.90;0.90;;;;;;;13.38;100.00;95571.88;4308218;33;20215;-60
2022/10/14 05:36:18;;;;;;;0.40;0.40;;;;;;;13.31;100.00;95574.16;4296769;33;20263;-59
2022/10/14 05:38:45;;;;;;;0.23;0.23;;;;;;;13.20;100.00;95578.16;4299810;33;20213;-59
2022/10/14 05:41:11;;;;;;;0.93;0.93;;;;;;;13.25;100.00;95578.84;4323504;33;20219;-59
2022/10/14 05:43:37;;;;;;;0.50;0.50;;;;;;;13.29;100.00;95569.16;4324464;33;20202;-59
2022/10/14 05:46:24;;;;;;;2.43;1.10;;;;;;;13.23;100.00;95574.91;4306242;33;20236;-66
2022/10/14 05:48:51;;;;;;;0.60;0.60;;;;;;;13.32;100.00;95573.84;4350637;32;20190;-59
2022/10/14 05:51:20;;;;;;;0.30;0.30;;;;;;;13.36;100.00;95564.16;4315139;33;20208;-59
2022/10/14 05:53:49;;;;;;;0.70;0.70;;;;;;;13.31;100.00;95569.62;4326356;33;20212;-59
2022/10/14 05:56:16;;;;;;;0.20;0.20;;;;;;;13.30;100.00;95569.94;4331999;32;20199;-60
2022/10/14 05:58:45;;;;;;;0.57;0.57;;;;;;;13.34;100.00;95566.34;4321721;32;20192;-60
2022/10/14 06:01:11;;;;;;;0.60;0.60;;;;;;;13.30;100.00;95567.28;4307251;33;20292;-60
2022/10/14 06:03:38;;;;;;;0.63;0.63;;;;;;;13.27;100.00;95559.88;4303519;33;20190;-60
2022/10/14 06:06:05;;;;;;;0.47;0.47;;;;;;;13.29;100.00;95557.72;4317410;33;20196;-59
2022/10/14 06:08:31;;;;;;;0.30;0.30;;;;;;;13.36;100.00;95563.38;4322019;32;20186;-60
2022/10/14 06:11:02;;;;;;;0.70;0.70;;;;;;;13.23;100.00;95559.72;4337583;32;20276;-59
2022/10/14 06:13:29;;;;;;;0.53;0.53;;;;;;;13.16;100.00;95564.66;4330571;32;20261;-60
2022/10/14 06:15:57;;;;;;;0.67;0.67;;;;;;;13.20;100.00;95554.19;4325049;32;20196;-59
2022/10/14 06:18:23;;;;;;;0.77;0.77;;;;;;;13.29;100.00;95557.72;4339159;32;20259;-59
2022/10/14 06:20:53;;;;;;;1.27;0.93;;;;;;;13.63;100.00;95555.22;4309412;32;20205;-59
2022/10/14 06:23:19;;;;;;;0.50;0.50;;;;;;;13.69;100.00;95553.22;4327525;32;20229;-59
2022/10/14 06:25:46;;;;;;;0.60;0.60;;;;;;;13.77;100.00;95555.13;4287489;33;20205;-60
2022/10/14 06:28:12;;;;;;;1.10;0.77;;;;;;;13.88;100.00;95547.66;4298511;32;20205;-60
2022/10/14 06:30:39;;;;;;;0.53;0.53;;;;;;;13.90;100.00;95545.47;4269184;33;20253;-60
2022/10/14 06:33:06;;;;;;;1.70;0.97;;;;;;;14.03;100.00;95552.56;4333303;32;20238;-59
2022/10/14 06:35:31;;;;;;;0.73;0.43;;;;;;;14.11;100.00;95551.81;4335914;32;20205;-59
2022/10/14 06:37:58;;;;;;;0.63;0.63;;;;;;;14.17;100.00;95539.09;4317386;32;20255;-59
2022/10/14 06:40:25;;;;;;;2.53;0.63;;;;;;;14.22;100.00;95544.31;4329783;32;20273;-59
2022/10/14 06:42:52;;;;;;;0.47;0.47;;;;;;;14.21;99.33;95553.41;4339931;32;20200;-60
2022/10/14 06:45:18;;;;;;;0.63;0.63;;;;;;;14.16;98.76;95553.53;4347121;32;20186;-59
2022/10/14 06:47:45;;;;;;;0.63;0.60;;;;;;;14.21;99.41;95559.53;4321586;32;20181;-60
2022/10/14 06:50:13;;;;;;;0.37;0.37;;;;;;;14.28;98.56;95557.19;4339168;32;20212;-59
2022/10/14 06:52:43;;;;;;;0.50;0.50;;;;;;;14.36;98.93;95551.06;4290511;33;20261;-60
2022/10/14 06:55:09;;;;;;;0.97;0.27;;;;;;;14.43;98.08;95550.66;4309401;32;20228;-57
2022/10/14 06:57:35;;;;;;;0.67;0.67;;;;;;;14.51;99.42;95551.78;4331255;32;20182;-59
2022/10/14 07:00:01;;;;;;;0.20;0.20;;;;;;;14.34;96.01;95550.59;4344486;32;20189;-59
2022/10/14 07:02:31;;;;;;;0.50;0.50;;;;;;;14.02;96.52;95559.78;4342647;32;20280;-60
2022/10/14 07:04:57;;;;;;;0.30;0.30;;;;;;;13.91;97.44;95555.03;4282863;33;20194;-59
2022/10/14 07:07:27;;;;;;;0.43;0.43;;;;;;;13.86;97.89;95557.84;4310331;33;20194;-60
2022/10/14 07:09:54;;;;;;;0.30;0.30;;;;;;;13.93;97.47;95550.16;4308972;32;20217;-59
2022/10/14 07:12:22;;;;;;;0.43;0.43;;;;;;;13.77;98.31;95547.91;4285775;33;20194;-60
2022/10/14 07:14:48;;;;;;;3.03;1.07;;;;;;;13.72;98.99;95552.59;4300167;32;20295;-59
2022/10/14 07:17:15;;;;;;;0.27;0.27;;;;;;;13.88;98.36;95547.66;4338934;32;20185;-60
2022/10/14 07:19:41;;;;;;;0.60;0.60;;;;;;;13.77;98.43;95547.91;4334981;32;20190;-60
2022/10/14 07:22:09;;;;;;;0.47;0.47;;;;;;;13.81;98.54;95541.97;4273906;33;20241;-60
2022/10/14 07:24:36;;;;;;;0.57;0.57;;;;;;;13.61;99.17;95538.75;4284756;33;20202;-60
2022/10/14 07:27:03;;;;;;;0.93;0.93;;;;;;;13.69;99.27;95535.34;4296365;33;20194;-59
2022/10/14 07:29:32;;;;;;;0.50;0.50;;;;;;;13.70;99.42;95539.59;4319528;33;20197;-59
2022/10/14 07:31:59;;;;;;;0.63;0.63;;;;;;;13.76;99.16;95529.56;4317441;33;20289;-59
2022/10/14 07:34:26;;;;;;;1.07;0.60;;;;;;;13.58;100.00;95534.03;4307621;32;20194;-58
2022/10/14 07:36:52;;;;;;;0.13;0.13;;;;;;;13.60;100.00;95531.84;4317450;32;20186;-59
2022/10/14 07:39:20;;;;;;;0.97;0.53;;;;;;;13.55;100.00;95534.63;4297907;33;20244;-59
2022/10/14 07:41:47;;;;;;;0.37;0.37;;;;;;;13.65;100.00;95530.94;4307792;33;20212;-59
2022/10/14 07:44:15;;;;;;;0.80;0.80;;;;;;;13.69;100.00;95535.34;4286591;33;20294;-59
2022/10/14 07:46:44;;;;;;;0.53;0.53;;;;;;;13.72;100.00;95532.03;4315571;33;20189;-60
2022/10/14 07:49:18;;;;;;;0.33;0.33;;;;;;;13.72;100.00;95532.03;4296064;33;20252;-59
2022/10/14 07:51:46;;;;;;;0.60;0.60;;;;;;;13.73;100.00;95532.84;4290102;33;20241;-59
2022/10/14 07:54:19;;;;;;;0.47;0.47;;;;;;;13.73;100.00;95530.94;4305814;33;20195;-59
2022/10/14 07:56:48;;;;;;;0.50;0.50;;;;;;;13.84;100.00;95542.16;4278552;33;20194;-60
2022/10/14 07:59:19;;;;;;;0.20;0.20;;;;;;;13.91;100.00;95531.03;4297727;33;20241;-60
2022/10/14 08:01:51;;;;;;;0.90;0.90;;;;;;;13.93;100.00;95534.94;4313972;33;20190;-59
2022/10/14 08:04:19;;;;;;;0.67;0.67;;;;;;;13.94;100.00;95541.06;4310256;33;20190;-59
2022/10/14 08:06:47;;;;;;;0.63;0.63;;;;;;;14.05;100.00;95542.37;4284551;33;20205;-60
2022/10/14 08:09:13;;;;;;;13.53;1.43;;;;;;;14.04;100.00;95540.81;4299767;33;20284;-60
2022/10/14 08:11:41;;;;;;;0.60;0.60;;;;;;;14.04;100.00;95538.12;4308248;33;20229;-59
2022/10/14 08:14:08;;;;;;;0.40;0.40;;;;;;;14.07;100.00;95543.66;4313578;33;20190;-59
2022/10/14 08:16:35;;;;;;;0.53;0.53;;;;;;;14.18;100.00;95530.78;4308136;33;20193;-60
2022/10/14 08:19:05;;;;;;;0.40;0.40;;;;;;;14.27;100.00;95544.94;4295191;33;20197;-59
2022/10/14 08:21:31;;;;;;;1.57;1.43;;;;;;;14.23;100.00;95538.66;4307295;33;20189;-59
2022/10/14 08:23:58;;;;;;;0.63;0.63;;;;;;;14.20;99.61;95533.16;4315022;32;20272;-59
2022/10/14 08:26:35;;;;;;;0.83;0.83;;;;;;;14.21;99.38;95532.06;4274476;33;20240;-59
2022/10/14 08:29:04;;;;;;;0.50;0.50;;;;;;;14.31;99.28;95524.56;4244937;33;20242;-48
2022/10/14 08:31:33;;;;;;;0.20;0.20;;;;;;;15.15;100.00;95527.91;4308200;33;20171;-46
2022/10/14 08:34:10;;;;;;;0.20;0.20;;;;;;;15.82;100.00;95522.69;4313920;33;20202;-46
2022/10/14 08:36:36;;;;;;;0.33;0.33;;;;;;;16.25;97.55;95527.03;4282900;33;20204;-46
2022/10/14 08:39:05;;;;;;;0.33;0.33;;;;;;;16.81;93.11;95529.22;4323961;33;20193;-46
2022/10/14 08:42:20;;;;;;;1.53;0.70;;;;;;;17.10;90.46;95527.56;4310068;33;20193;-48
2022/10/14 08:45:23;;;;;;;0.27;0.27;;;;;;;17.70;86.44;95528.88;4288656;33;20219;-49
2022/10/14 08:47:55;;;;;;;0.20;0.20;;;;;;;17.93;83.53;95530.00;4281899;33;20260;-48
2022/10/14 08:50:35;;;;;;;0.40;0.40;;;;;;;18.18;82.22;95530.81;4266367;33;20301;-46
2022/10/14 08:53:13;;;;;;;0.40;0.40;;;;;;;18.43;81.23;95529.69;4306801;33;20213;-48
2022/10/14 08:55:54;;;;;;;0.60;0.60;;;;;;;18.66;79.79;95521.16;4309047;32;20243;-49
2022/10/14 08:58:32;;;;;;;0.70;0.70;;;;;;;18.61;79.79;95521.41;4291391;33;20205;-49
2022/10/14 09:01:12;;;;;;;0.20;0.20;;;;;;;18.56;79.97;95522.38;4311398;33;20185;-59
2022/10/14 09:03:37;;;;;;;0.67;0.67;;;;;;;17.52;80.18;95528.25;4302397;33;20186;-61
2022/10/14 09:06:17;;;;;;;0.43;0.37;;;;;;;17.07;82.25;95528.22;4309629;33;20217;-59
2022/10/14 09:08:47;;;;;;;0.70;0.70;;;;;;;16.53;82.75;95532.72;4298620;33;20202;-60
2022/10/14 09:11:23;;;;;;;0.60;0.60;;;;;;;16.25;83.84;95519.81;4276479;33;20240;-61
2022/10/14 09:13:56;;;;;;;0.10;0.10;;;;;;;15.89;81.98;95522.19;4310668;32;20233;-59
2022/10/14 09:16:35;;;;;;;0.60;0.60;;;;;;;15.89;83.65;95522.19;4268901;33;20194;-60
2022/10/14 09:19:03;;;;;;;0.97;0.60;;;;;;;15.84;83.61;95514.34;4294718;33;20201;-60
2022/10/14 09:21:35;;;;;;;1.90;0.40;;;;;;;15.75;83.16;95517.84;4329758;32;20231;-61
2022/10/14 09:24:20;;;;;;;1.60;0.30;;;;;;;15.72;86.45;95517.72;4287440;33;20201;-61
2022/10/14 09:27:28;;;;;;;0.50;0.50;;;;;;;15.77;86.75;95514.88;4333188;32;20193;-61
2022/10/14 09:30:00;;;;;;;0.10;0.10;;;;;;;15.88;87.00;95515.28;4303382;33;20271;-60
2022/10/14 09:32:33;;;;;;;0.33;0.27;;;;;;;15.86;87.80;95518.28;4316812;32;20261;-60
2022/10/14 09:35:00;;;;;;;0.20;0.20;;;;;;;15.77;86.80;95512.97;4326783;32;20256;-60
2022/10/14 09:37:38;;;;;;;0.77;0.77;;;;;;;15.86;83.94;95507.56;4297405;33;20247;-61
2022/10/14 09:40:29;;;;;;;2.97;2.80;;;;;;;15.96;85.24;95517.13;4324283;32;20199;-61
2022/10/14 09:43:23;;;;;;;1.27;1.20;;;;;;;15.99;83.93;95511.16;4327679;32;20372;-59
2022/10/14 09:46:10;;;;;;;0.50;0.50;;;;;;;15.91;85.14;95507.41;4321629;32;20248;-60
2022/10/14 09:48:49;;;;;;;0.40;0.40;;;;;;;16.02;83.85;95502.44;4320589;32;20197;-61
2022/10/14 09:51:33;;;;;;;0.27;0.27;;;;;;;16.08;84.83;95499.28;4300791;33;20190;-60
2022/10/14 09:54:03;;;;;;;0.50;0.50;;;;;;;15.97;87.66;95495.41;4291821;33;20198;-59
2022/10/14 09:56:38;;;;;;;0.90;0.63;;;;;;;16.03;83.98;95501.34;4288717;33;20269;-59
2022/10/14 09:59:35;;;;;;;0.37;0.37;;;;;;;16.11;79.97;95492.50;4321910;32;20224;-60
2022/10/14 10:02:04;;;;;;;0.40;0.40;;;;;;;16.07;84.32;95502.28;4320954;32;20181;-59
2022/10/14 10:04:45;;;;;;;0.20;0.20;;;;;;;16.02;84.18;95500.56;4297819;32;20209;-60
2022/10/14 10:07:33;;;;;;;0.30;0.30;;;;;;;16.03;82.75;95504.00;4306930;33;20202;-60
2022/10/14 10:10:04;;;;;;;0.00;0.00;;;;;;;16.00;79.44;95502.00;4316502;33;20256;-60
2022/10/14 10:12:35;;;;;;;0.10;0.10;;;;;;;15.96;78.72;95491.16;4313784;32;20216;-59
2022/10/14 10:15:06;;;;;;;0.27;0.27;;;;;;;16.01;78.95;95490.16;4322035;32;20200;-60
2022/10/14 10:17:49;;;;;;;0.23;0.23;;;;;;;16.00;82.20;95491.31;4313202;32;20241;-61
2022/10/14 10:20:19;;;;;;;0.57;0.57;;;;;;;16.03;81.31;95493.31;4306576;32;20198;-60
2022/10/14 10:22:45;;;;;;;0.27;0.27;;;;;;;16.02;83.48;95486.38;4308131;32;20190;-61
2022/10/14 10:25:24;;;;;;;3.20;0.67;;;;;;;15.97;83.08;95491.94;4318423;32;20255;-60
2022/10/14 10:27:53;;;;;;;0.30;0.30;;;;;;;16.10;80.55;95485.56;4304666;33;20208;-60
2022/10/14 10:31:05;;;;;;;0.17;0.17;;;;;;;16.07;74.83;95488.87;4318890;32;20243;-61
2022/10/14 10:33:49;;;;;;;0.00;0.00;;;;;;;15.94;78.45;95482.66;4324578;32;20189;-60
2022/10/14 10:36:40;;;;;;;0.20;0.20;;;;;;;16.01;76.71;95471.44;4308110;33;20204;-58
2022/10/14 10:39:23;;;;;;;0.20;0.20;;;;;;;16.03;76.38;95466.56;4328838;32;20190;-60
2022/10/14 10:42:13;;;;;;;0.00;0.00;;;;;;;16.03;75.12;95461.97;4311815;32;20225;-60
2022/10/14 10:45:20;;;;;;;0.30;0.30;;;;;;;16.10;73.96;95466.84;4337648;32;20189;-60
2022/10/14 10:48:06;;;;;;;0.37;0.37;;;;;;;16.12;74.08;95464.63;4316726;32;20240;-60
2022/10/14 10:50:55;;;;;;;0.50;0.43;;;;;;;16.17;75.89;95460.97;4297496;32;20194;-61
2022/10/14 10:54:05;;;;;;;0.37;0.37;;;;;;;16.16;74.97;95452.16;4325688;32;20182;-60
2022/10/14 10:56:58;;;;;;;0.30;0.30;;;;;;;16.06;74.83;95452.53;4321991;32;20205;-60
2022/10/14 10:59:46;;;;;;;0.20;0.20;;;;;;;16.15;71.63;95447.91;4310965;32;20272;-60
2022/10/14 11:02:37;;;;;;;0.20;0.20;;;;;;;16.18;73.87;95455.28;4268638;32;20194;-61
2022/10/14 11:05:20;;;;;;;0.07;0.07;;;;;;;16.13;71.22;95455.47;4345396;32;20227;-60
2022/10/14 11:12:06;;;;;;;0.40;0.40;;;;;;;16.32;73.93;95444.31;4321217;32;20212;-60
2022/10/14 11:15:17;;;;;;;0.10;0.10;;;;;;;16.38;71.27;95443.81;4305112;33;20194;-60
2022/10/14 11:18:18;;;;;;;0.67;0.40;;;;;;;16.53;66.96;95442.44;4288689;33;20213;-60
2022/10/14 11:21:20;;;;;;;0.60;0.60;;;;;;;16.43;71.90;95432.88;4310264;32;20216;-60
2022/10/14 11:24:29;;;;;;;0.40;0.40;;;;;;;16.41;71.95;95437.03;4326797;32;20207;-60
2022/10/14 11:27:33;;;;;;;2.63;0.47;;;;;;;16.40;73.00;95422.84;4309329;33;20244;-60
2022/10/14 11:30:42;;;;;;;1.07;0.43;;;;;;;16.45;70.04;95417.28;4210197;33;20333;-59
2022/10/14 11:34:02;;;;;;;0.23;0.23;;;;;;;16.45;72.10;95416.50;4269862;33;20239;-60
2022/10/14 11:36:43;;;;;;;0.67;0.47;;;;;;;16.52;72.01;95405.25;4254658;33;20231;-60
2022/10/14 11:39:38;;;;;;;0.83;0.37;;;;;;;16.55;70.86;95393.91;4251648;33;20203;-60
2022/10/14 11:42:24;;;;;;;0.20;0.20;;;;;;;16.58;70.67;95398.59;4233576;33;20203;-62
2022/10/14 11:45:27;;;;;;;0.43;0.30;;;;;;;16.72;70.28;95393.75;4254068;33;20249;-59
2022/10/14 11:48:04;;;;;;;0.50;0.43;;;;;;;16.69;69.64;95395.19;4246885;33;20194;-60
2022/10/14 11:50:40;;;;;;;0.33;0.33;;;;;;;16.70;70.73;95379.91;4236014;33;20258;-60
2022/10/14 11:53:18;;;;;;;1.30;0.50;;;;;;;16.70;68.96;95377.22;4268987;32;20197;-61
2022/10/14 11:55:56;;;;;;;0.60;0.47;;;;;;;16.78;72.48;95371.78;4342936;32;20186;-60
2022/10/14 11:58:33;;;;;;;0.30;0.30;;;;;;;16.75;67.48;95375.13;4318686;32;20185;-60
2022/10/14 12:01:21;;;;;;;0.27;0.27;;;;;;;16.83;69.23;95378.84;4335478;32;20189;-60
2022/10/14 12:04:18;;;;;;;0.17;0.17;;;;;;;16.83;68.31;95379.59;4311508;33;20208;-60
2022/10/14 12:06:56;;;;;;;0.40;0.40;;;;;;;16.83;70.63;95376.91;4302179;32;20212;-60